createdAt,value
2022-11-21T00:00:36.797Z,40.50
2022-11-21T00:05:42.747Z,37.93
2022-11-21T00:10:45.851Z,37.23
2022-11-21T00:15:48.707Z,39.37
2022-11-21T00:20:51.557Z,32.07
2022-11-21T00:25:54.495Z,31.03
2022-11-21T00:30:57.540Z,29.90
2022-11-21T00:36:06.642Z,31.13
2022-11-21T00:41:09.487Z,30.13
2022-11-21T00:46:12.516Z,35.43
2022-11-21T00:51:15.510Z,34.50
2022-11-21T00:56:18.664Z,32.43
2022-11-21T01:01:21.609Z,30.27
2022-11-21T01:06:24.393Z,34.67
2022-11-21T01:11:27.300Z,34.23
2022-11-21T01:16:30.300Z,39.20
2022-11-21T01:21:33.347Z,35.23
2022-11-21T01:26:38.414Z,30.80
2022-11-21T01:31:41.252Z,35.17
2022-11-21T01:36:44.352Z,36.33
2022-11-21T01:41:47.302Z,35.33
2022-11-21T01:46:51.685Z,35.57
2022-11-21T01:51:58.129Z,41.83
2022-11-21T01:57:16.860Z,36.83
2022-11-21T02:02:21.967Z,36.50
2022-11-21T02:07:25.698Z,32.70
2022-11-21T02:12:38.982Z,34.70
2022-11-21T02:17:42.092Z,35.97
2022-11-21T02:23:03.723Z,40.33
2022-11-21T02:28:08.589Z,35.07
2022-11-21T02:33:12.375Z,34.97
2022-11-21T02:38:20.378Z,37.50
2022-11-21T02:43:25.376Z,37.27
2022-11-21T02:48:28.685Z,37.47
2022-11-21T02:53:31.887Z,36.77
2022-11-21T02:58:34.865Z,37.30
2022-11-21T03:03:37.780Z,41.97
2022-11-21T03:08:40.588Z,44.60
2022-11-21T03:13:43.604Z,48.37
2022-11-21T03:18:46.783Z,44.93
2022-11-21T03:23:49.861Z,44.77
2022-11-21T03:28:52.982Z,44.43
2022-11-21T03:33:55.790Z,42.77
2022-11-21T03:38:58.850Z,45.33
2022-11-21T03:44:04.201Z,42.90
2022-11-21T03:49:07.642Z,48.70
2022-11-21T03:54:11.118Z,47.17
2022-11-21T03:59:13.913Z,47.30
2022-11-21T04:04:16.817Z,48.30
2022-11-21T04:09:19.743Z,42.73
2022-11-21T04:14:22.727Z,43.43
2022-11-21T04:19:25.835Z,43.23
2022-11-21T04:24:28.890Z,42.67
2022-11-21T04:29:31.841Z,38.27
2022-11-21T04:34:34.678Z,40.97
2022-11-21T04:39:37.758Z,40.63
2022-11-21T04:44:40.715Z,37.90
2022-11-21T04:49:43.712Z,40.23
2022-11-21T04:54:46.695Z,38.77
2022-11-21T04:59:49.491Z,37.03
2022-11-21T05:04:52.408Z,38.33
2022-11-21T05:09:55.372Z,44.40
2022-11-21T05:14:58.815Z,40.80
2022-11-21T05:20:02.145Z,40.73
2022-11-21T05:25:05.719Z,43.60
2022-11-21T05:30:09.229Z,41.13
2022-11-21T05:35:12.511Z,41.03
2022-11-21T05:40:15.730Z,46.80
2022-11-21T05:45:18.801Z,39.43
2022-11-21T05:50:21.812Z,37.43
2022-11-21T05:55:27.939Z,33.93
2022-11-21T06:00:30.756Z,36.80
2022-11-21T06:05:33.654Z,35.47
2022-11-21T06:10:36.932Z,40.83
2022-11-21T06:15:40.386Z,43.40
2022-11-21T06:20:43.335Z,38.07
2022-11-21T06:25:46.320Z,39.37
2022-11-21T06:30:52.127Z,40.17
2022-11-21T06:35:55.251Z,37.33
2022-11-21T06:40:58.210Z,38.37
2022-11-21T06:46:03.608Z,44.27
2022-11-21T06:51:09.406Z,42.63
2022-11-21T06:56:12.544Z,43.50
2022-11-21T07:01:15.705Z,40.97
2022-11-21T07:06:18.856Z,44.00
2022-11-21T07:11:25.687Z,41.87
2022-11-21T07:16:32.148Z,39.60
2022-11-21T07:21:34.988Z,45.30
2022-11-21T07:26:37.803Z,42.03
2022-11-21T07:31:40.756Z,48.87
2022-11-21T07:36:43.697Z,47.63
2022-11-21T07:41:46.853Z,49.23
2022-11-21T07:46:49.996Z,48.53
2022-11-21T07:51:53.008Z,47.43
2022-11-21T07:56:58.128Z,47.50
2022-11-21T08:02:01.238Z,43.30
2022-11-21T08:07:04.117Z,42.50
2022-11-21T08:12:06.933Z,59.07
2022-11-21T08:17:09.757Z,46.67
2022-11-21T08:22:12.461Z,41.07
2022-11-21T08:27:17.178Z,43.23
2022-11-21T08:32:20.103Z,46.13
2022-11-21T08:37:22.967Z,44.63
2022-11-21T08:42:26.370Z,44.70
2022-11-21T08:47:29.646Z,45.63
2022-11-21T08:52:32.510Z,50.83
2022-11-21T08:57:41.822Z,56.03
2022-11-21T09:02:45.042Z,55.10
2022-11-21T09:07:48.667Z,59.20
2022-11-21T09:12:51.631Z,55.57
2022-11-21T09:18:03.345Z,84.63
2022-11-21T09:23:07.208Z,79.70
2022-11-21T09:28:11.039Z,68.83
2022-11-21T09:33:17.100Z,84.80
2022-11-21T09:38:24.020Z,87.73
2022-11-21T09:43:30.187Z,78.53
2022-11-21T09:48:34.660Z,88.20
2022-11-21T09:53:42.930Z,84.93
2022-11-21T09:59:18.746Z,125.40
2022-11-21T10:04:21.730Z,96.53
2022-11-21T10:09:30.639Z,124.47
2022-11-21T10:14:42.830Z,98.77
2022-11-21T10:20:00.956Z,99.97
2022-11-21T10:25:13.368Z,92.87
2022-11-21T10:30:18.846Z,91.30
2022-11-21T10:35:39.969Z,86.93
2022-11-21T10:40:46.044Z,101.50
2022-11-21T10:45:49.745Z,88.53
2022-11-21T10:51:11.063Z,97.50
2022-11-21T10:56:25.574Z,98.93
2022-11-21T11:01:30.158Z,89.73
2022-11-21T11:06:33.516Z,99.03
2022-11-21T11:11:36.450Z,95.47
2022-11-21T11:16:45.098Z,106.67
2022-11-21T11:21:49.574Z,112.43
2022-11-21T11:26:59.151Z,176.77
2022-11-21T11:32:04.841Z,109.77
2022-11-21T11:37:20.833Z,105.77
2022-11-21T11:43:06.562Z,108.93
2022-11-21T11:48:12.909Z,104.47
2022-11-21T11:53:16.783Z,110.80
2022-11-21T11:58:26.324Z,106.03
2022-11-21T12:03:41.203Z,111.23
2022-11-21T12:08:53.367Z,111.87
2022-11-21T12:13:57.679Z,110.27
2022-11-21T12:19:11.442Z,114.90
2022-11-21T12:24:14.462Z,123.50
2022-11-21T12:29:30.299Z,102.53
2022-11-21T12:35:24.247Z,104.63
2022-11-21T12:40:33.002Z,104.00
2022-11-21T12:45:55.885Z,116.57
2022-11-21T12:51:36.910Z,108.40
2022-11-21T12:56:39.706Z,116.33
2022-11-21T13:02:08.146Z,113.37
2022-11-21T13:07:11.633Z,112.10
2022-11-21T13:12:41.114Z,105.13
2022-11-21T13:17:56.566Z,107.60
2022-11-21T13:23:06.783Z,114.37
2022-11-21T13:28:18.866Z,117.73
2022-11-21T13:33:40.314Z,110.10
2022-11-21T13:38:55.270Z,112.27
2022-11-21T13:44:38.100Z,107.10
2022-11-21T13:49:44.107Z,120.93
2022-11-21T13:55:23.710Z,124.40
2022-11-21T14:00:35.231Z,130.77
2022-11-21T14:05:57.158Z,129.73
2022-11-21T14:11:20.381Z,128.43
2022-11-21T14:16:41.527Z,118.50
2022-11-21T14:21:46.598Z,137.00
2022-11-21T14:26:51.566Z,124.27
2022-11-21T14:31:54.404Z,133.37
2022-11-21T14:37:03.448Z,125.43
2022-11-21T14:42:07.344Z,117.00
2022-11-21T14:47:24.645Z,128.40
2022-11-21T14:52:31.821Z,137.73
2022-11-21T14:57:39.458Z,133.40
2022-11-21T15:02:42.908Z,138.47
2022-11-21T15:07:47.930Z,124.17
2022-11-21T15:13:04.286Z,130.20
2022-11-21T15:18:33.558Z,128.93
2022-11-21T15:23:40.466Z,124.37
2022-11-21T15:28:54.981Z,120.93
2022-11-21T15:39:24.941Z,122.30
2022-11-21T15:44:28.499Z,129.60
2022-11-21T15:49:33.265Z,125.70
2022-11-21T15:54:36.993Z,122.90
2022-11-21T15:59:40.166Z,118.77
2022-11-21T16:04:43.060Z,124.10
2022-11-21T16:09:47.996Z,131.20
2022-11-21T16:14:51.097Z,123.07
2022-11-21T16:19:53.843Z,119.63
2022-11-21T16:24:57.042Z,129.43
2022-11-21T16:30:00.673Z,132.50
2022-11-21T16:35:04.256Z,127.43
2022-11-21T16:40:08.369Z,124.50
2022-11-21T16:45:11.681Z,124.80
2022-11-21T16:50:15.066Z,133.13
2022-11-21T16:55:18.345Z,121.63
2022-11-21T17:00:21.580Z,139.80
2022-11-21T17:05:25.033Z,118.90
2022-11-21T17:10:33.691Z,126.10
2022-11-21T17:15:38.525Z,128.40
2022-11-21T17:20:41.510Z,119.30
2022-11-21T17:25:45.141Z,126.73
2022-11-21T17:30:48.062Z,124.20
2022-11-21T17:35:51.540Z,116.53
2022-11-21T17:41:02.132Z,128.00
2022-11-21T17:46:10.009Z,127.83
2022-11-21T17:51:15.879Z,132.87
2022-11-21T17:56:20.887Z,128.57
2022-11-21T18:01:24.381Z,118.60
2022-11-21T18:06:32.998Z,123.07
2022-11-21T18:11:39.987Z,122.73
2022-11-21T18:31:59.188Z,131.73
2022-11-21T18:37:02.167Z,144.17
2022-11-21T18:42:05.274Z,121.10
2022-11-21T18:47:19.599Z,127.47
2022-11-21T18:52:24.169Z,127.77
2022-11-21T18:57:27.074Z,127.40
2022-11-21T19:02:30.223Z,136.53
2022-11-21T19:07:33.127Z,122.80
2022-11-21T19:12:39.723Z,123.97
2022-11-21T19:17:43.038Z,131.80
2022-11-21T19:22:46.031Z,127.33
2022-11-21T19:27:49.529Z,126.07
2022-11-21T19:32:52.611Z,125.00
2022-11-21T19:37:55.711Z,122.63
2022-11-21T19:42:59.022Z,137.47
2022-11-21T19:48:02.221Z,140.67
2022-11-21T19:53:05.338Z,139.07
2022-11-21T19:58:08.125Z,137.70
2022-11-21T20:03:11.226Z,162.83
2022-11-21T20:08:17.685Z,143.10
2022-11-21T20:13:21.792Z,146.83
2022-11-21T20:18:24.780Z,145.63
2022-11-21T20:23:27.830Z,144.93
2022-11-21T20:28:31.278Z,143.23
2022-11-21T20:33:38.437Z,136.30
2022-11-21T20:38:42.123Z,134.53
2022-11-21T20:44:32.429Z,127.57
2022-11-21T20:49:08.901Z,128.00
2022-11-21T20:54:12.410Z,132.03
2022-11-21T20:59:15.952Z,130.37
2022-11-21T21:04:19.191Z,132.10
2022-11-21T21:09:22.447Z,135.93
2022-11-21T21:14:25.322Z,131.70
2022-11-21T21:19:28.644Z,129.07
2022-11-21T21:24:32.136Z,132.33
2022-11-21T21:29:35.323Z,151.63
2022-11-21T21:34:38.250Z,142.63
2022-11-21T21:39:41.195Z,127.17
2022-11-21T21:44:44.322Z,127.13
2022-11-21T21:49:50.907Z,130.03
2022-11-21T21:54:53.711Z,124.27
2022-11-21T21:59:57.056Z,127.60
2022-11-21T22:05:00.039Z,126.47
2022-11-21T22:10:03.220Z,127.80
2022-11-21T22:15:06.650Z,128.90
2022-11-21T22:20:09.920Z,120.20
2022-11-21T22:25:12.821Z,128.63
2022-11-21T22:30:16.019Z,137.30
2022-11-21T22:35:18.930Z,130.30
2022-11-21T22:40:21.785Z,134.50
2022-11-21T22:45:25.135Z,132.50
2022-11-21T22:50:28.059Z,132.60
2022-11-21T22:55:30.941Z,136.80
2022-11-21T23:00:33.920Z,129.20
2022-11-21T23:05:37.113Z,135.43
2022-11-21T23:10:40.042Z,142.43
2022-11-21T23:15:42.875Z,138.03
2022-11-21T23:20:45.595Z,130.93
2022-11-21T23:25:48.633Z,131.40
2022-11-21T23:30:51.893Z,142.43
2022-11-21T23:35:54.800Z,139.87
2022-11-21T23:40:57.852Z,135.83
2022-11-21T23:46:00.780Z,126.83
2022-11-21T23:51:03.715Z,129.27
2022-11-21T23:56:06.803Z,120.27
